createdAt,value
2023-02-16T00:01:22.136Z,7.07
2023-02-16T00:03:50.542Z,6.97
2023-02-16T00:06:18.518Z,8.40
2023-02-16T00:08:47.506Z,6.30
2023-02-16T00:11:37.313Z,7.03
2023-02-16T00:14:08.101Z,7.32
2023-02-16T00:16:37.436Z,6.60
2023-02-16T00:19:18.090Z,6.00
2023-02-16T00:21:45.887Z,7.57
2023-02-16T00:24:13.670Z,8.30
2023-02-16T00:26:42.823Z,6.72
2023-02-16T00:29:15.197Z,6.03
2023-02-16T00:31:44.368Z,7.57
2023-02-16T00:34:28.710Z,8.20
2023-02-16T00:36:58.086Z,7.30
2023-02-16T00:39:26.840Z,7.18
2023-02-16T00:41:56.644Z,7.40
2023-02-16T00:44:34.198Z,6.97
2023-02-16T00:47:21.282Z,8.30
2023-02-16T00:49:50.185Z,7.65
2023-02-16T00:52:36.731Z,6.97
2023-02-16T00:55:06.813Z,7.40
2023-02-16T00:57:40.021Z,6.43
2023-02-16T01:00:14.029Z,8.88
2023-02-16T01:02:43.906Z,7.55
2023-02-16T01:05:11.876Z,7.47
2023-02-16T01:07:56.962Z,8.40
2023-02-16T01:10:43.481Z,7.30
2023-02-16T01:13:12.373Z,7.93
2023-02-16T01:15:41.114Z,7.63
2023-02-16T01:18:11.855Z,6.55
2023-02-16T01:20:39.706Z,7.13
2023-02-16T01:23:07.435Z,7.63
2023-02-16T01:25:36.626Z,8.20
2023-02-16T01:28:04.845Z,7.68
2023-02-16T01:30:32.792Z,8.30
2023-02-16T01:33:00.534Z,9.05
2023-02-16T01:35:35.352Z,7.22
2023-02-16T01:38:03.513Z,8.73
2023-02-16T01:40:39.547Z,7.65
2023-02-16T01:43:16.771Z,8.02
2023-02-16T01:45:49.119Z,8.30
2023-02-16T01:48:23.772Z,6.50
2023-02-16T01:51:00.516Z,6.60
2023-02-16T01:53:33.838Z,7.53
2023-02-16T01:56:04.998Z,6.75
2023-02-16T01:58:39.376Z,7.15
2023-02-16T02:01:48.783Z,7.88
2023-02-16T02:04:44.265Z,6.65
2023-02-16T02:07:21.574Z,6.63
2023-02-16T02:09:57.702Z,7.63
2023-02-16T02:12:30.850Z,8.05
2023-02-16T02:14:58.639Z,7.57
2023-02-16T02:17:27.219Z,7.47
2023-02-16T02:20:11.525Z,6.90
2023-02-16T02:23:32.718Z,6.45
2023-02-16T02:26:30.219Z,6.13
2023-02-16T02:29:11.830Z,5.75
2023-02-16T02:31:51.431Z,6.95
2023-02-16T02:34:30.069Z,6.80
2023-02-16T02:37:06.299Z,7.00
2023-02-16T02:39:41.136Z,7.80
2023-02-16T02:42:14.877Z,7.70
2023-02-16T02:44:50.042Z,7.57
2023-02-16T02:47:18.144Z,7.47
2023-02-16T02:49:51.726Z,7.88
2023-02-16T02:52:19.866Z,7.00
2023-02-16T02:55:06.416Z,6.43
2023-02-16T02:57:56.797Z,7.25
2023-02-16T03:00:44.085Z,5.90
2023-02-16T03:03:17.208Z,6.03
2023-02-16T03:05:49.601Z,7.00
2023-02-16T03:08:20.161Z,7.60
2023-02-16T03:11:09.767Z,7.18
2023-02-16T03:13:41.472Z,8.25
2023-02-16T03:16:15.233Z,8.15
2023-02-16T03:19:03.011Z,8.20
2023-02-16T03:21:48.367Z,6.68
2023-02-16T03:24:39.304Z,6.10
2023-02-16T03:27:26.800Z,7.72
2023-02-16T03:29:56.328Z,8.75
2023-02-16T03:32:25.580Z,8.38
2023-02-16T03:34:53.312Z,6.95
2023-02-16T03:37:21.623Z,8.13
2023-02-16T03:40:07.781Z,9.20
2023-02-16T03:42:35.617Z,6.32
2023-02-16T03:45:03.448Z,6.82
2023-02-16T03:47:32.608Z,6.40
2023-02-16T03:50:00.379Z,6.95
2023-02-16T03:52:28.125Z,8.18
2023-02-16T03:54:55.863Z,6.85
2023-02-16T03:57:23.728Z,6.28
2023-02-16T03:59:51.972Z,6.90
2023-02-16T04:02:20.230Z,7.15
2023-02-16T04:04:49.460Z,5.85
2023-02-16T04:07:17.176Z,6.78
2023-02-16T04:09:44.944Z,7.22
2023-02-16T04:12:31.027Z,6.40
2023-02-16T04:14:59.135Z,6.60
2023-02-16T04:17:27.067Z,6.82
2023-02-16T04:19:56.142Z,6.60
2023-02-16T04:22:23.946Z,6.18
2023-02-16T04:24:51.785Z,6.70
2023-02-16T04:27:19.508Z,7.15
2023-02-16T04:29:47.445Z,5.70
2023-02-16T04:32:15.375Z,6.55
2023-02-16T04:34:43.202Z,7.82
2023-02-16T04:37:12.421Z,7.00
2023-02-16T04:39:40.317Z,6.10
2023-02-16T04:42:08.046Z,6.10
2023-02-16T04:44:35.851Z,5.25
2023-02-16T04:47:03.641Z,7.60
2023-02-16T04:49:31.421Z,7.65
2023-02-16T04:52:00.977Z,7.63
2023-02-16T04:54:30.230Z,5.95
2023-02-16T04:56:58.000Z,6.75
2023-02-16T04:59:25.779Z,6.35
2023-02-16T05:01:54.271Z,6.43
2023-02-16T05:04:22.138Z,5.88
2023-02-16T05:06:49.893Z,7.38
2023-02-16T05:09:17.828Z,5.65
2023-02-16T05:12:04.365Z,6.88
2023-02-16T05:14:43.063Z,6.93
2023-02-16T05:17:11.898Z,7.60
2023-02-16T05:19:40.922Z,6.65
2023-02-16T05:22:09.422Z,7.38
2023-02-16T05:24:37.916Z,6.93
2023-02-16T05:27:08.736Z,5.75
2023-02-16T05:29:36.513Z,6.60
2023-02-16T05:32:04.967Z,6.07
2023-02-16T05:34:32.811Z,7.82
2023-02-16T05:37:00.556Z,5.95
2023-02-16T05:39:28.377Z,6.00
2023-02-16T05:41:56.099Z,5.75
2023-02-16T05:44:25.475Z,6.18
2023-02-16T05:46:53.235Z,6.07
2023-02-16T05:49:21.050Z,5.45
2023-02-16T05:51:48.945Z,6.78
2023-02-16T05:54:18.080Z,5.88
2023-02-16T05:56:46.970Z,6.20
2023-02-16T05:59:16.011Z,6.18
2023-02-16T06:01:50.541Z,5.05
2023-02-16T06:04:19.755Z,6.47
2023-02-16T06:06:47.525Z,6.65
2023-02-16T06:09:15.769Z,5.75
2023-02-16T06:11:43.593Z,6.13
2023-02-16T06:14:13.387Z,5.63
2023-02-16T06:16:42.797Z,4.95
2023-02-16T06:19:12.742Z,5.13
2023-02-16T06:21:41.460Z,5.05
2023-02-16T06:24:10.722Z,5.18
2023-02-16T06:26:38.942Z,6.00
2023-02-16T06:29:07.234Z,5.68
2023-02-16T06:31:36.615Z,4.63
2023-02-16T06:34:05.298Z,4.78
2023-02-16T06:36:34.995Z,5.60
2023-02-16T06:39:02.799Z,4.65
2023-02-16T06:41:35.776Z,4.93
2023-02-16T06:44:05.898Z,6.43
2023-02-16T06:46:34.236Z,5.00
2023-02-16T06:49:02.495Z,5.40
2023-02-16T06:51:30.764Z,4.65
2023-02-16T06:53:59.900Z,6.47
2023-02-16T06:56:27.972Z,4.72
2023-02-16T06:58:55.866Z,4.40
2023-02-16T07:01:25.758Z,4.10
2023-02-16T07:03:54.770Z,3.97
2023-02-16T07:06:24.176Z,5.13
2023-02-16T07:08:52.384Z,4.53
2023-02-16T07:11:22.149Z,3.97
2023-02-16T07:13:50.108Z,4.07
2023-02-16T07:16:18.090Z,4.28
2023-02-16T07:18:46.266Z,4.57
2023-02-16T07:21:14.295Z,4.20
2023-02-16T07:23:42.314Z,3.70
2023-02-16T07:26:10.052Z,5.30
2023-02-16T07:28:39.212Z,3.60
2023-02-16T07:31:09.174Z,3.42
2023-02-16T07:33:37.064Z,4.72
2023-02-16T07:36:05.540Z,4.57
2023-02-16T07:38:33.239Z,3.67
2023-02-16T07:41:01.062Z,3.45
2023-02-16T07:43:28.887Z,3.67
2023-02-16T07:45:58.118Z,4.30
2023-02-16T07:48:25.843Z,3.42
2023-02-16T07:50:54.133Z,3.67
2023-02-16T07:53:21.982Z,4.15
2023-02-16T07:55:49.767Z,3.45
2023-02-16T07:58:27.253Z,2.83
2023-02-16T08:00:58.337Z,3.90
2023-02-16T08:03:26.224Z,4.32
2023-02-16T08:05:54.099Z,4.10
2023-02-16T08:08:21.805Z,3.22
2023-02-16T08:10:49.617Z,3.60
2023-02-16T08:13:17.345Z,4.07
2023-02-16T08:15:45.339Z,3.83
2023-02-16T08:18:15.207Z,3.85
2023-02-16T08:21:01.538Z,4.70
2023-02-16T08:23:31.433Z,4.80
2023-02-16T08:25:59.613Z,3.67
2023-02-16T08:28:28.485Z,3.53
2023-02-16T08:30:56.588Z,4.60
2023-02-16T08:33:25.849Z,3.63
2023-02-16T08:35:53.672Z,3.42
2023-02-16T08:38:21.833Z,3.28
2023-02-16T08:40:49.720Z,3.83
2023-02-16T08:43:17.586Z,3.95
2023-02-16T08:45:45.700Z,3.25
2023-02-16T08:48:13.501Z,3.58
2023-02-16T08:50:53.233Z,3.95
2023-02-16T08:53:21.307Z,3.63
2023-02-16T08:55:53.388Z,2.65
2023-02-16T08:58:21.389Z,3.10
2023-02-16T09:00:49.877Z,2.63
2023-02-16T09:03:19.043Z,2.65
2023-02-16T09:05:48.623Z,3.42
2023-02-16T09:08:16.725Z,2.65
2023-02-16T09:10:44.852Z,2.90
2023-02-16T09:13:14.888Z,2.72
2023-02-16T09:15:43.348Z,3.65
2023-02-16T09:18:12.219Z,3.67
2023-02-16T09:20:41.261Z,2.55
2023-02-16T09:23:12.416Z,2.50
2023-02-16T09:25:42.163Z,2.53
2023-02-16T09:28:11.458Z,2.28
2023-02-16T09:30:39.830Z,3.13
2023-02-16T09:33:07.741Z,2.35
2023-02-16T09:35:35.464Z,2.55
2023-02-16T09:38:03.428Z,2.53
2023-02-16T09:40:32.622Z,2.58
2023-02-16T09:43:14.432Z,2.13
2023-02-16T09:45:46.027Z,2.45
2023-02-16T09:48:24.331Z,2.33
2023-02-16T09:50:55.362Z,2.60
2023-02-16T09:53:31.457Z,2.55
2023-02-16T09:56:09.381Z,2.08
2023-02-16T09:58:43.564Z,2.15
2023-02-16T10:01:20.437Z,1.65
2023-02-16T10:04:07.178Z,1.73
2023-02-16T10:06:51.649Z,2.10
2023-02-16T10:09:20.535Z,2.40
2023-02-16T10:11:56.316Z,1.67
2023-02-16T10:14:31.691Z,2.03
2023-02-16T10:17:07.914Z,1.17
2023-02-16T10:19:41.134Z,1.55
2023-02-16T10:22:17.355Z,1.67
2023-02-16T10:24:52.782Z,3.42
2023-02-16T10:27:23.390Z,1.92
2023-02-16T10:29:51.105Z,2.15
2023-02-16T10:32:29.081Z,1.83
2023-02-16T10:35:04.669Z,1.33
2023-02-16T10:37:52.566Z,1.65
2023-02-16T10:40:28.663Z,1.98
2023-02-16T10:43:07.047Z,1.52
2023-02-16T10:45:38.351Z,1.80
2023-02-16T10:48:06.168Z,1.63
2023-02-16T10:50:40.105Z,2.15
2023-02-16T10:53:14.059Z,2.00
2023-02-16T10:55:41.885Z,1.73
2023-02-16T10:58:22.175Z,2.10
2023-02-16T11:00:55.604Z,1.80
2023-02-16T11:03:26.048Z,1.63
2023-02-16T11:05:54.757Z,2.30
2023-02-16T11:08:24.135Z,1.50
2023-02-16T11:10:54.151Z,1.52
2023-02-16T11:13:31.465Z,1.65
2023-02-16T11:16:02.177Z,1.40
2023-02-16T11:18:34.569Z,1.00
2023-02-16T11:21:03.949Z,1.60
2023-02-16T11:23:33.574Z,1.27
2023-02-16T11:26:05.680Z,1.88
2023-02-16T11:28:37.938Z,1.08
2023-02-16T11:31:15.826Z,1.48
2023-02-16T11:33:54.791Z,0.85
2023-02-16T11:36:28.863Z,1.10
2023-02-16T11:39:00.365Z,1.40
2023-02-16T11:41:29.671Z,1.10
2023-02-16T11:43:59.114Z,1.58
2023-02-16T11:46:27.281Z,0.98
2023-02-16T11:48:55.404Z,1.42
2023-02-16T11:51:34.888Z,1.48
2023-02-16T11:54:05.465Z,0.90
2023-02-16T11:56:34.446Z,1.00
2023-02-16T11:59:19.186Z,1.05
2023-02-16T12:02:08.571Z,0.82
2023-02-16T12:04:48.926Z,1.08
2023-02-16T12:07:27.450Z,1.08
2023-02-16T12:10:03.653Z,1.40
2023-02-16T12:12:37.679Z,0.90
2023-02-16T12:15:21.109Z,1.23
2023-02-16T12:18:15.751Z,1.17
2023-02-16T12:20:54.176Z,0.70
2023-02-16T12:23:34.602Z,1.30
2023-02-16T12:26:18.943Z,1.38
2023-02-16T12:28:51.873Z,1.00
2023-02-16T12:31:30.794Z,1.45
2023-02-16T12:34:14.484Z,0.75
2023-02-16T12:39:28.621Z,0.80
2023-02-16T12:42:14.385Z,0.70
2023-02-16T12:44:47.007Z,1.25
2023-02-16T12:47:22.722Z,1.30
2023-02-16T12:49:54.699Z,1.05
2023-02-16T12:52:32.050Z,0.82
2023-02-16T12:55:12.360Z,0.73
2023-02-16T12:57:51.756Z,1.10
2023-02-16T13:00:27.078Z,0.77
2023-02-16T13:03:04.962Z,0.93
2023-02-16T13:05:37.674Z,0.82
2023-02-16T13:08:14.191Z,1.48
2023-02-16T13:10:53.798Z,1.00
2023-02-16T13:13:26.087Z,0.55
2023-02-16T13:16:01.091Z,1.02
2023-02-16T13:18:33.688Z,0.73
2023-02-16T13:21:05.808Z,0.88
2023-02-16T13:23:52.699Z,0.90
2023-02-16T13:26:39.948Z,0.80
2023-02-16T13:29:32.095Z,0.73
2023-02-16T13:32:17.827Z,0.98
2023-02-16T13:35:07.991Z,0.55
2023-02-16T13:37:49.362Z,0.93
2023-02-16T13:40:30.922Z,1.17
2023-02-16T13:43:16.728Z,1.02
2023-02-16T13:45:47.445Z,1.40
2023-02-16T13:48:22.306Z,1.83
2023-02-16T13:51:02.203Z,0.70
2023-02-16T13:53:36.188Z,0.95
2023-02-16T13:56:17.260Z,0.95
2023-02-16T13:58:45.232Z,1.15
2023-02-16T14:01:38.798Z,0.73
2023-02-16T14:04:13.895Z,0.88
2023-02-16T14:06:43.684Z,1.02
2023-02-16T14:09:37.179Z,0.55
2023-02-16T14:12:15.405Z,0.95
2023-02-16T14:14:56.528Z,1.23
2023-02-16T14:17:27.476Z,1.48
2023-02-16T14:19:58.082Z,1.50
2023-02-16T14:22:34.449Z,1.40
2023-02-16T14:25:04.622Z,1.40
2023-02-16T14:27:46.017Z,2.30
2023-02-16T14:30:26.545Z,2.80
2023-02-16T14:33:01.453Z,3.83
2023-02-16T14:35:34.009Z,3.88
2023-02-16T14:38:07.121Z,2.67
2023-02-16T14:40:48.991Z,2.67
2023-02-16T14:43:26.210Z,3.10
2023-02-16T14:46:27.466Z,2.60
2023-02-16T14:49:28.523Z,1.40
2023-02-16T14:52:35.960Z,1.00
2023-02-16T14:55:40.693Z,0.70
2023-02-16T14:58:28.838Z,0.68
2023-02-16T15:01:04.699Z,0.90
2023-02-16T15:03:42.449Z,0.80
2023-02-16T15:06:20.276Z,0.80
2023-02-16T15:08:57.066Z,0.57
2023-02-16T15:11:32.430Z,1.05
2023-02-16T15:14:05.595Z,0.57
2023-02-16T15:16:34.588Z,0.50
2023-02-16T15:19:09.438Z,1.17
2023-02-16T15:21:37.182Z,0.50
2023-02-16T15:24:05.938Z,0.75
2023-02-16T15:26:38.208Z,0.90
2023-02-16T15:29:22.398Z,0.88
2023-02-16T15:31:51.110Z,1.55
2023-02-16T15:34:30.333Z,0.70
2023-02-16T15:36:58.231Z,0.73
2023-02-16T15:39:42.701Z,1.13
2023-02-16T15:42:24.948Z,0.57
2023-02-16T15:44:53.416Z,0.70
2023-02-16T15:47:24.138Z,0.98
2023-02-16T15:49:52.826Z,0.50
2023-02-16T15:52:23.754Z,1.05
2023-02-16T15:54:52.761Z,0.47
2023-02-16T15:57:30.754Z,1.05
2023-02-16T16:00:00.772Z,0.50
2023-02-16T16:02:35.569Z,0.75
2023-02-16T16:05:06.178Z,0.55
2023-02-16T16:07:36.759Z,0.60
2023-02-16T16:10:15.689Z,0.40
2023-02-16T16:12:45.600Z,0.93
2023-02-16T16:15:19.347Z,0.60
2023-02-16T16:17:47.180Z,0.50
2023-02-16T16:20:30.471Z,0.90
2023-02-16T16:22:59.821Z,0.40
2023-02-16T16:25:39.175Z,0.57
2023-02-16T16:28:12.549Z,0.57
2023-02-16T16:33:14.580Z,0.70
2023-02-16T16:35:45.111Z,0.68
2023-02-16T16:38:23.743Z,0.73
2023-02-16T16:40:53.268Z,0.73
2023-02-16T16:43:27.699Z,0.50
2023-02-16T16:45:58.833Z,0.85
2023-02-16T16:48:34.171Z,0.85
2023-02-16T16:51:13.466Z,0.40
2023-02-16T16:53:46.306Z,0.80
2023-02-16T16:56:15.365Z,0.75
2023-02-16T16:58:44.597Z,0.40
2023-02-16T17:01:13.756Z,0.40
2023-02-16T17:03:41.722Z,0.70
2023-02-16T17:06:09.622Z,0.52
2023-02-16T17:08:37.587Z,0.88
2023-02-16T17:11:06.407Z,0.65
2023-02-16T17:13:34.217Z,0.95
2023-02-16T17:16:05.918Z,0.82
2023-02-16T17:18:33.981Z,0.63
2023-02-16T17:21:01.741Z,0.80
2023-02-16T17:23:29.461Z,1.08
2023-02-16T17:25:57.252Z,0.80
2023-02-16T17:28:25.604Z,1.00
2023-02-16T17:30:53.349Z,1.13
2023-02-16T17:33:22.521Z,0.70
2023-02-16T17:35:50.317Z,0.63
2023-02-16T17:38:20.560Z,0.98
2023-02-16T17:40:49.755Z,0.80
2023-02-16T17:43:20.152Z,0.80
2023-02-16T17:45:50.113Z,0.50
2023-02-16T17:48:20.645Z,0.68
2023-02-16T17:50:51.294Z,0.90
2023-02-16T17:53:22.699Z,1.20
2023-02-16T17:55:53.098Z,0.90
2023-02-16T17:58:21.835Z,0.80
2023-02-16T18:00:50.006Z,0.77
2023-02-16T18:03:18.017Z,1.02
2023-02-16T18:05:45.857Z,0.90
2023-02-16T18:08:15.421Z,1.00
2023-02-16T18:10:45.805Z,0.80
2023-02-16T18:13:14.740Z,0.93
2023-02-16T18:15:46.099Z,0.95
2023-02-16T18:18:14.237Z,0.90
2023-02-16T18:20:42.458Z,0.88
2023-02-16T18:23:10.221Z,1.02
2023-02-16T18:25:41.412Z,1.67
2023-02-16T18:28:09.207Z,0.98
2023-02-16T18:30:36.990Z,1.25
2023-02-16T18:33:04.877Z,1.45
2023-02-16T18:35:33.449Z,1.40
2023-02-16T18:38:01.293Z,1.00
2023-02-16T18:40:29.055Z,1.27
2023-02-16T18:42:58.479Z,1.10
2023-02-16T18:45:26.575Z,1.05
2023-02-16T18:47:54.434Z,1.35
2023-02-16T18:50:22.266Z,1.17
2023-02-16T18:52:50.053Z,1.00
2023-02-16T18:55:18.150Z,1.08
2023-02-16T18:57:45.931Z,1.30
2023-02-16T19:00:16.490Z,1.52
2023-02-16T19:02:44.321Z,1.08
2023-02-16T19:05:12.382Z,1.17
2023-02-16T19:07:40.207Z,1.10
2023-02-16T19:10:10.388Z,1.10
2023-02-16T19:12:38.279Z,1.20
2023-02-16T19:15:06.725Z,1.23
2023-02-16T19:17:38.603Z,1.17
2023-02-16T19:20:08.001Z,1.30
2023-02-16T19:22:37.260Z,1.00
2023-02-16T19:25:05.763Z,1.30
2023-02-16T19:27:33.788Z,2.47
2023-02-16T19:30:01.618Z,1.50
2023-02-16T19:32:29.379Z,2.10
2023-02-16T19:34:58.495Z,2.10
2023-02-16T19:37:26.354Z,1.77
2023-02-16T19:39:54.078Z,1.52
2023-02-16T19:42:21.813Z,2.42
2023-02-16T19:44:49.656Z,1.83
2023-02-16T19:47:18.057Z,2.20
2023-02-16T19:49:46.275Z,1.42
2023-02-16T19:52:15.396Z,2.78
2023-02-16T19:54:43.215Z,2.05
2023-02-16T19:57:10.993Z,2.42
2023-02-16T19:59:38.719Z,1.95
2023-02-16T20:02:06.478Z,2.25
2023-02-16T20:04:34.331Z,2.10
2023-02-16T20:07:02.101Z,1.52
2023-02-16T20:09:31.215Z,1.73
2023-02-16T20:11:59.071Z,2.20
2023-02-16T20:14:26.827Z,2.10
2023-02-16T20:16:54.546Z,2.30
2023-02-16T20:19:22.364Z,2.03
2023-02-16T20:21:50.204Z,2.15
2023-02-16T20:24:18.026Z,1.65
2023-02-16T20:26:49.031Z,1.80
2023-02-16T20:29:17.136Z,2.10
2023-02-16T20:31:49.482Z,2.50
2023-02-16T20:34:17.626Z,1.80
2023-02-16T20:36:45.378Z,2.38
2023-02-16T20:39:13.137Z,2.42
2023-02-16T20:41:41.403Z,1.88
2023-02-16T20:44:11.689Z,2.70
2023-02-16T20:46:41.110Z,1.90
2023-02-16T20:49:09.286Z,2.40
2023-02-16T20:51:38.365Z,2.30
2023-02-16T20:54:06.909Z,1.98
2023-02-16T20:56:34.811Z,2.50
2023-02-16T20:59:02.590Z,2.28
2023-02-16T21:01:37.004Z,2.15
2023-02-16T21:04:05.702Z,2.67
2023-02-16T21:06:34.160Z,3.10
2023-02-16T21:09:01.980Z,1.80
2023-02-16T21:11:29.824Z,2.47
2023-02-16T21:13:58.350Z,2.35
2023-02-16T21:16:27.325Z,2.35
2023-02-16T21:18:56.603Z,3.03
2023-02-16T21:21:24.904Z,2.78
2023-02-16T21:23:55.340Z,2.47
2023-02-16T21:26:25.868Z,3.28
2023-02-16T21:28:54.314Z,2.33
2023-02-16T21:31:25.463Z,2.50
2023-02-16T21:33:54.356Z,1.98
2023-02-16T21:36:25.567Z,2.88
2023-02-16T21:38:53.526Z,2.05
2023-02-16T21:41:25.703Z,2.50
2023-02-16T21:43:55.086Z,2.63
2023-02-16T21:46:23.834Z,1.83
2023-02-16T21:48:50.635Z,2.00
2023-02-16T21:51:20.105Z,1.77
2023-02-16T21:53:49.356Z,2.30
2023-02-16T21:56:33.392Z,2.85
2023-02-16T21:59:01.401Z,3.42
2023-02-16T22:01:31.044Z,3.22
2023-02-16T22:04:00.317Z,2.40
2023-02-16T22:06:30.145Z,2.47
2023-02-16T22:08:59.711Z,2.97
2023-02-16T22:11:27.660Z,2.78
2023-02-16T22:13:56.094Z,2.85
2023-02-16T22:16:25.342Z,2.90
2023-02-16T22:18:58.046Z,2.45
2023-02-16T22:21:26.148Z,2.33
2023-02-16T22:23:54.436Z,2.72
2023-02-16T22:26:25.863Z,2.72
2023-02-16T22:28:54.711Z,2.63
2023-02-16T22:31:24.429Z,2.10
2023-02-16T22:33:56.946Z,2.38
2023-02-16T22:36:24.871Z,2.57
2023-02-16T22:38:53.621Z,2.65
2023-02-16T22:41:23.247Z,3.58
2023-02-16T22:43:53.520Z,2.67
2023-02-16T22:46:21.849Z,2.97
2023-02-16T22:48:49.638Z,2.80
2023-02-16T22:51:19.339Z,3.28
2023-02-16T22:53:47.624Z,3.15
2023-02-16T22:56:17.433Z,2.78
2023-02-16T22:58:47.435Z,2.92
2023-02-16T23:01:18.082Z,2.75
2023-02-16T23:03:47.892Z,2.80
2023-02-16T23:06:17.391Z,3.03
2023-02-16T23:08:46.578Z,3.42
2023-02-16T23:11:14.740Z,3.00
2023-02-16T23:13:42.529Z,3.85
2023-02-16T23:16:15.014Z,3.28
2023-02-16T23:18:43.468Z,3.87
2023-02-16T23:21:17.176Z,3.03
2023-02-16T23:23:45.439Z,2.63
2023-02-16T23:26:13.716Z,3.53
2023-02-16T23:28:43.242Z,3.45
2023-02-16T23:31:13.558Z,3.75
2023-02-16T23:33:42.483Z,3.40
2023-02-16T23:36:10.916Z,3.35
2023-02-16T23:38:39.486Z,3.88
2023-02-16T23:41:11.866Z,3.40
2023-02-16T23:43:40.233Z,2.67
2023-02-16T23:46:09.042Z,3.63
2023-02-16T23:48:39.468Z,3.10
2023-02-16T23:51:07.668Z,2.97
2023-02-16T23:53:35.588Z,3.17
2023-02-16T23:56:06.295Z,3.60
2023-02-16T23:58:38.021Z,3.15
